Time;durP1;ratioP1;P1;durP2;ratioP2;P2;SDS_P1;SDS_P2;PMS_P1;PMS_P2;Temp;Humidity;BMP_temperature;BMP_pressure;BME280_temperature;BME280_humidity;BME280_pressure;Samples;Min_cycle;Max_cycle;Signal;HPM_P1;HPM_P2
2024/01/14 00:01:57;;;;;;;;;;;;;;;0.83;100.00;101057.81;4882414;29;19930;-78
2024/01/14 00:04:22;;;;;;;;;;;;;;;0.87;100.00;101054.75;4883349;29;19931;-78
2024/01/14 00:06:49;;;;;;;;;;;;;;;0.97;100.00;101038.94;4883676;29;19928;-77
2024/01/14 00:09:14;;;;;;;;;;;;;;;1.00;100.00;101043.97;4883551;29;19967;-78
2024/01/14 00:11:40;;;;;;;;;;;;;;;0.91;100.00;101034.13;4893772;29;19924;-77
2024/01/14 00:14:05;;;;;;;;;;;;;;;0.98;100.00;101037.09;4902213;29;19911;-77
2024/01/14 00:16:34;;;;;;;;;;;;;;;0.94;100.00;101031.22;4883508;29;20291;-78
2024/01/14 00:18:59;;;;;;;;;;;;;;;0.87;100.00;101028.25;4882624;29;20014;-78
2024/01/14 00:21:24;;;;;;;;;;;;;;;0.89;100.00;101022.81;4881325;29;19974;-78
2024/01/14 00:23:50;;;;;;;;;;;;;;;0.79;100.00;101036.03;4880697;29;19930;-78
2024/01/14 00:26:15;;;;;;;;;;;;;;;0.84;100.00;101040.94;4880388;29;19928;-78
2024/01/14 00:28:40;;;;;;;;;;;;;;;0.76;100.00;101023.03;4880739;29;20015;-77
2024/01/14 00:31:06;;;;;;;;;;;;;;;0.66;100.00;101020.31;4899524;29;19946;-77
2024/01/14 00:33:31;;;;;;;;;;;;;;;0.81;100.00;101019.97;4898753;29;19978;-77
2024/01/14 00:35:56;;;;;;;;;;;;;;;0.79;100.00;101025.44;4900104;29;19970;-77
2024/01/14 00:38:22;;;;;;;;;;;;;;;0.77;100.00;101010.59;4882654;29;20051;-77
2024/01/14 00:40:47;;;;;;;;;;;;;;;0.80;100.00;101005.06;4909335;29;19919;-76
2024/01/14 00:43:15;;;;;;;;;;;;;;;0.77;100.00;100998.22;4921371;29;19927;-78
2024/01/14 00:45:40;;;;;;;;;;;;;;;0.73;100.00;100994.97;4901224;29;20348;-78
2024/01/14 00:48:05;;;;;;;;;;;;;;;0.66;100.00;100992.94;4899482;29;19934;-78
2024/01/14 00:50:34;;;;;;;;;;;;;;;0.70;100.00;100986.44;4893136;29;20403;-78
2024/01/14 00:53:02;;;;;;;;;;;;;;;0.67;100.00;100984.03;4897567;29;19927;-77
2024/01/14 00:55:27;;;;;;;;;;;;;;;0.67;100.00;100976.94;4898806;29;19984;-77
2024/01/14 00:57:53;;;;;;;;;;;;;;;0.68;100.00;100980.41;4899618;29;20277;-78
2024/01/14 01:00:18;;;;;;;;;;;;;;;0.68;100.00;100969.81;4899026;29;19930;-77
2024/01/14 01:02:43;;;;;;;;;;;;;;;0.68;100.00;100968.03;4898624;29;19924;-78
2024/01/14 01:05:08;;;;;;;;;;;;;;;0.74;100.00;100970.13;4898668;29;19924;-77
2024/01/14 01:07:34;;;;;;;;;;;;;;;0.80;100.00;100967.94;4899653;29;20010;-78
2024/01/14 01:09:59;;;;;;;;;;;;;;;0.84;100.00;100959.59;4913147;29;20940;-77
2024/01/14 01:12:24;;;;;;;;;;;;;;;0.80;100.00;100960.00;4921251;29;19928;-77
2024/01/14 01:14:49;;;;;;;;;;;;;;;0.84;100.00;100966.72;4900270;29;19930;-78
2024/01/14 01:17:15;;;;;;;;;;;;;;;0.90;100.00;100956.44;4891477;29;20036;-78
2024/01/14 01:19:40;;;;;;;;;;;;;;;0.86;100.00;100951.53;4900202;29;19924;-78
2024/01/14 01:22:07;;;;;;;;;;;;;;;0.92;100.00;100945.69;4897451;29;19923;-78
2024/01/14 01:24:33;;;;;;;;;;;;;;;0.93;100.00;100952.69;4897432;29;20379;-78
2024/01/14 01:26:58;;;;;;;;;;;;;;;0.91;100.00;100949.31;4882519;29;19923;-77
2024/01/14 01:29:23;;;;;;;;;;;;;;;1.02;100.00;100951.03;4891881;29;20425;-76
2024/01/14 01:31:48;;;;;;;;;;;;;;;0.97;100.00;100943.50;4881107;29;20014;-76
2024/01/14 01:34:13;;;;;;;;;;;;;;;0.80;100.00;100952.88;4884076;29;19919;-77
2024/01/14 01:36:39;;;;;;;;;;;;;;;0.85;100.00;100944.56;4884632;29;19923;-76
2024/01/14 01:39:04;;;;;;;;;;;;;;;0.81;100.00;100940.47;4899484;29;19914;-75
2024/01/14 01:41:29;;;;;;;;;;;;;;;0.71;100.00;100941.25;4899941;29;19920;-75
2024/01/14 01:43:54;;;;;;;;;;;;;;;0.65;100.00;100952.38;4881323;29;19934;-76
2024/01/14 01:46:20;;;;;;;;;;;;;;;0.68;100.00;100944.19;4883025;29;19979;-77
2024/01/14 01:48:46;;;;;;;;;;;;;;;0.71;100.00;100941.25;4864980;29;19931;-77
2024/01/14 01:51:12;;;;;;;;;;;;;;;0.70;100.00;100939.59;4880855;29;19923;-76
2024/01/14 01:53:37;;;;;;;;;;;;;;;0.66;100.00;100943.47;4881642;29;20373;-76
2024/01/14 01:56:03;;;;;;;;;;;;;;;0.62;100.00;100942.03;4863174;29;19973;-77
2024/01/14 01:58:28;;;;;;;;;;;;;;;0.59;100.00;100937.00;4878175;29;19924;-77
2024/01/14 02:00:54;;;;;;;;;;;;;;;0.61;100.00;100927.13;4878924;29;19930;-77
2024/01/14 02:03:19;;;;;;;;;;;;;;;0.57;100.00;100926.53;4879690;29;20042;-77
2024/01/14 02:05:44;;;;;;;;;;;;;;;0.63;100.00;100925.19;4863221;29;19960;-75
2024/01/14 02:08:10;;;;;;;;;;;;;;;0.62;100.00;100926.16;4862659;29;19983;-77
2024/01/14 02:10:36;;;;;;;;;;;;;;;0.61;100.00;100913.88;4880083;29;19939;-77
2024/01/14 02:13:01;;;;;;;;;;;;;;;0.68;100.00;100917.69;4893036;23;20353;-77
2024/01/14 02:15:26;;;;;;;;;;;;;;;0.67;100.00;100913.34;4898379;29;19927;-77
2024/01/14 02:17:52;;;;;;;;;;;;;;;0.64;100.00;100913.63;4898691;29;19919;-77
2024/01/14 02:20:20;;;;;;;;;;;;;;;0.70;100.00;100915.75;4898226;29;20010;-77
2024/01/14 02:22:47;;;;;;;;;;;;;;;0.67;100.00;100904.56;4898741;29;20030;-77
2024/01/14 02:25:12;;;;;;;;;;;;;;;0.62;100.00;100902.31;4881623;29;19924;-76
2024/01/14 02:27:37;;;;;;;;;;;;;;;0.62;100.00;100897.00;4879203;29;20443;-76
2024/01/14 02:30:03;;;;;;;;;;;;;;;0.58;100.00;100904.38;4896279;29;20274;-76
2024/01/14 02:32:28;;;;;;;;;;;;;;;0.54;100.00;100905.59;4897307;29;19924;-77
2024/01/14 02:34:53;;;;;;;;;;;;;;;0.55;100.00;100906.44;4896618;29;19979;-76
2024/01/14 02:37:18;;;;;;;;;;;;;;;0.58;100.00;100895.56;4896838;29;19934;-76
2024/01/14 02:39:44;;;;;;;;;;;;;;;0.57;100.00;100904.50;4895256;29;19928;-76
2024/01/14 02:42:09;;;;;;;;;;;;;;;0.56;100.00;100894.88;4889500;29;19931;-77
2024/01/14 02:44:35;;;;;;;;;;;;;;;0.58;100.00;100888.50;4893465;29;20368;-77
2024/01/14 02:47:02;;;;;;;;;;;;;;;0.49;100.00;100896.38;4896758;29;20355;-77
2024/01/14 02:49:28;;;;;;;;;;;;;;;0.56;100.00;100881.63;4898155;29;19931;-77
2024/01/14 02:51:53;;;;;;;;;;;;;;;0.61;100.00;100884.72;4896505;29;19928;-77
2024/01/14 02:54:18;;;;;;;;;;;;;;;0.60;100.00;100886.56;4896381;29;20014;-77
2024/01/14 02:56:43;;;;;;;;;;;;;;;0.64;100.00;100881.81;4897831;29;19979;-77
2024/01/14 02:59:12;;;;;;;;;;;;;;;0.60;100.00;100877.75;4898011;29;19930;-76
2024/01/14 03:01:44;;;;;;;;;;;;;;;0.55;100.00;100870.19;4897247;29;20010;-77
2024/01/14 03:04:09;;;;;;;;;;;;;;;0.54;100.00;100863.22;4897629;29;19970;-77
2024/01/14 03:06:34;;;;;;;;;;;;;;;0.59;100.00;100865.47;4897839;29;19963;-77
2024/01/14 03:09:00;;;;;;;;;;;;;;;0.55;100.00;100858.75;4899692;29;19965;-77
2024/01/14 03:11:25;;;;;;;;;;;;;;;0.57;100.00;100862.09;4902039;29;20514;-77
2024/01/14 03:13:53;;;;;;;;;;;;;;;0.55;100.00;100864.03;4899895;29;20391;-77
2024/01/14 03:16:18;;;;;;;;;;;;;;;0.55;100.00;100856.97;4892317;29;21779;-77
2024/01/14 03:18:44;;;;;;;;;;;;;;;0.60;100.00;100852.13;4901893;29;19923;-77
2024/01/14 03:21:15;;;;;;;;;;;;;;;0.59;100.00;100844.28;4900526;29;19967;-77
2024/01/14 03:23:40;;;;;;;;;;;;;;;0.53;100.00;100842.19;4898204;29;20387;-77
2024/01/14 03:26:05;;;;;;;;;;;;;;;0.56;100.00;100848.03;4901481;29;19923;-77
2024/01/14 03:28:31;;;;;;;;;;;;;;;0.57;100.00;100840.91;4899541;29;19924;-77
2024/01/14 03:30:56;;;;;;;;;;;;;;;0.54;100.00;100846.47;4899632;29;20013;-77
2024/01/14 03:33:21;;;;;;;;;;;;;;;0.54;100.00;100841.19;4900999;29;19932;-77
2024/01/14 03:35:46;;;;;;;;;;;;;;;0.57;100.00;100836.47;4900398;29;19923;-77
2024/01/14 03:38:11;;;;;;;;;;;;;;;0.56;100.00;100833.94;4881548;29;19924;-77
2024/01/14 03:40:37;;;;;;;;;;;;;;;0.56;100.00;100828.63;4901107;29;19935;-77
2024/01/14 03:43:02;;;;;;;;;;;;;;;0.57;100.00;100832.97;4881746;29;19927;-77
2024/01/14 03:45:28;;;;;;;;;;;;;;;0.62;100.00;100840.53;4900291;29;19924;-77
2024/01/14 03:47:54;;;;;;;;;;;;;;;0.63;100.00;100828.94;4900758;29;20409;-77
2024/01/14 03:50:20;;;;;;;;;;;;;;;0.57;100.00;100819.72;4899890;29;19981;-77
2024/01/14 03:52:45;;;;;;;;;;;;;;;0.59;100.00;100828.38;4896158;29;19923;-77
2024/01/14 03:55:10;;;;;;;;;;;;;;;0.59;100.00;100831.03;4901903;29;19946;-77
2024/01/14 03:57:35;;;;;;;;;;;;;;;0.67;100.00;100817.13;4901521;29;19930;-76
2024/01/14 04:00:01;;;;;;;;;;;;;;;0.63;100.00;100824.50;4903744;29;19923;-76
2024/01/14 04:02:26;;;;;;;;;;;;;;;0.72;100.00;100817.56;4919218;29;19912;-77
2024/01/14 04:04:52;;;;;;;;;;;;;;;0.81;100.00;100814.09;4918220;29;19931;-77
2024/01/14 04:07:17;;;;;;;;;;;;;;;0.68;100.00;100808.19;4915587;29;19927;-77
2024/01/14 04:09:43;;;;;;;;;;;;;;;0.57;100.00;100814.44;4905410;29;19927;-77
2024/01/14 04:12:08;;;;;;;;;;;;;;;0.68;100.00;100814.34;4901148;29;20014;-77
2024/01/14 04:14:33;;;;;;;;;;;;;;;0.56;100.00;100818.03;4900072;29;19995;-77
2024/01/14 04:16:58;;;;;;;;;;;;;;;0.56;100.00;100804.81;4900240;29;19923;-76
2024/01/14 04:19:24;;;;;;;;;;;;;;;0.75;100.00;100804.88;4900009;29;19963;-77
2024/01/14 04:21:49;;;;;;;;;;;;;;;0.65;100.00;100804.03;4901116;29;19923;-77
2024/01/14 04:24:14;;;;;;;;;;;;;;;0.59;100.00;100796.59;4900164;29;19923;-77
2024/01/14 04:26:39;;;;;;;;;;;;;;;0.58;100.00;100794.91;4899317;29;20420;-77
2024/01/14 04:29:05;;;;;;;;;;;;;;;0.51;100.00;100794.63;4899898;29;20369;-77
2024/01/14 04:31:30;;;;;;;;;;;;;;;0.53;100.00;100797.97;4900451;29;19924;-77
2024/01/14 04:33:56;;;;;;;;;;;;;;;0.47;100.00;100797.66;4921384;29;19935;-76
2024/01/14 04:36:21;;;;;;;;;;;;;;;0.51;100.00;100793.78;4912780;29;19934;-77
2024/01/14 04:38:47;;;;;;;;;;;;;;;0.58;100.00;100793.13;4896580;29;19927;-77
2024/01/14 04:41:12;;;;;;;;;;;;;;;0.44;100.00;100791.66;4901133;29;20022;-77
2024/01/14 04:43:37;;;;;;;;;;;;;;;0.50;100.00;100792.94;4896124;29;19967;-77
2024/01/14 04:46:02;;;;;;;;;;;;;;;0.43;100.00;100797.91;4882720;29;20026;-77
2024/01/14 04:48:28;;;;;;;;;;;;;;;0.47;100.00;100787.06;4899257;29;19959;-77
2024/01/14 04:50:53;;;;;;;;;;;;;;;0.44;100.00;100793.47;4899820;29;19919;-77
2024/01/14 04:53:24;;;;;;;;;;;;;;;0.47;100.00;100784.41;4897926;29;19931;-76
2024/01/14 04:55:50;;;;;;;;;;;;;;;0.49;100.00;100780.66;4899000;29;19958;-74
2024/01/14 04:58:16;;;;;;;;;;;;;;;0.59;100.00;100781.56;4898203;29;19979;-74
2024/01/14 05:00:41;;;;;;;;;;;;;;;0.59;100.00;100783.34;4901097;29;19931;-75
2024/01/14 05:03:06;;;;;;;;;;;;;;;0.51;100.00;100780.53;4920931;29;19947;-74
2024/01/14 05:05:31;;;;;;;;;;;;;;;0.47;100.00;100782.59;4910544;29;19927;-75
2024/01/14 05:07:57;;;;;;;;;;;;;;;0.63;100.00;100766.22;4900417;29;19962;-74
2024/01/14 05:10:22;;;;;;;;;;;;;;;0.50;100.00;100773.56;4901247;29;19931;-75
2024/01/14 05:12:47;;;;;;;;;;;;;;;0.55;100.00;100773.97;4900751;23;19934;-77
2024/01/14 05:15:12;;;;;;;;;;;;;;;0.54;100.00;100767.88;4895851;29;19932;-77
2024/01/14 05:17:38;;;;;;;;;;;;;;;0.53;100.00;100766.19;4900038;29;19931;-77
2024/01/14 05:20:04;;;;;;;;;;;;;;;0.43;100.00;100766.13;4899569;29;19923;-77
2024/01/14 05:22:29;;;;;;;;;;;;;;;0.42;100.00;100766.28;4915101;23;19931;-77
2024/01/14 05:24:55;;;;;;;;;;;;;;;0.50;100.00;100760.31;4902483;29;19930;-78
2024/01/14 05:27:20;;;;;;;;;;;;;;;0.41;100.00;100752.19;4902288;29;19962;-77
2024/01/14 05:29:45;;;;;;;;;;;;;;;0.45;100.00;100752.75;4920036;23;19911;-77
2024/01/14 05:32:15;;;;;;;;;;;;;;;0.41;100.00;100741.59;4922095;29;19952;-77
2024/01/14 05:34:43;;;;;;;;;;;;;;;0.47;100.00;100739.41;4916675;29;19915;-77
2024/01/14 05:37:08;;;;;;;;;;;;;;;0.34;100.00;100744.91;4916660;29;19954;-77
2024/01/14 05:39:34;;;;;;;;;;;;;;;0.34;100.00;100740.47;4902910;29;19923;-77
2024/01/14 05:41:59;;;;;;;;;;;;;;;0.31;100.00;100735.44;4899366;29;19931;-77
2024/01/14 05:44:24;;;;;;;;;;;;;;;0.37;100.00;100734.88;4896820;29;19927;-78
2024/01/14 05:46:49;;;;;;;;;;;;;;;0.33;100.00;100738.78;4900145;29;19926;-77
2024/01/14 05:49:14;;;;;;;;;;;;;;;0.31;100.00;100735.44;4898014;29;19923;-78
2024/01/14 05:51:40;;;;;;;;;;;;;;;0.37;100.00;100739.34;4897252;29;19931;-78
2024/01/14 05:54:05;;;;;;;;;;;;;;;0.32;100.00;100734.47;4897974;29;19935;-77
2024/01/14 05:56:30;;;;;;;;;;;;;;;0.30;100.00;100725.81;4900117;29;20295;-77
2024/01/14 05:58:55;;;;;;;;;;;;;;;0.24;100.00;100731.63;4897424;29;19967;-78
2024/01/14 06:01:21;;;;;;;;;;;;;;;0.27;100.00;100734.84;4903574;23;20376;-77
2024/01/14 06:03:49;;;;;;;;;;;;;;;0.24;100.00;100735.13;4896147;29;20442;-77
2024/01/14 06:06:14;;;;;;;;;;;;;;;0.20;100.00;100724.91;4896549;29;19934;-77
2024/01/14 06:08:42;;;;;;;;;;;;;;;0.21;100.00;100726.59;4897530;29;19923;-78
2024/01/14 06:11:07;;;;;;;;;;;;;;;0.07;100.00;100718.03;4896971;29;19927;-78
2024/01/14 06:13:32;;;;;;;;;;;;;;;0.05;100.00;100719.16;4897183;29;20382;-78
2024/01/14 06:15:58;;;;;;;;;;;;;;;0.14;100.00;100708.63;4897195;29;20300;-77
2024/01/14 06:18:24;;;;;;;;;;;;;;;0.13;100.00;100709.59;4896910;29;20316;-78
2024/01/14 06:20:49;;;;;;;;;;;;;;;0.17;100.00;100722.56;4896636;29;20340;-77
2024/01/14 06:23:14;;;;;;;;;;;;;;;0.24;100.00;100721.03;4896948;29;19920;-78
2024/01/14 06:25:39;;;;;;;;;;;;;;;0.41;100.00;100714.28;4896644;29;20292;-78
2024/01/14 06:28:05;;;;;;;;;;;;;;;0.45;100.00;100713.03;4896867;29;20328;-78
2024/01/14 06:30:30;;;;;;;;;;;;;;;0.41;100.00;100704.53;4897386;29;20321;-78
2024/01/14 06:32:56;;;;;;;;;;;;;;;0.38;100.00;100702.13;4896319;29;19947;-78
2024/01/14 06:35:21;;;;;;;;;;;;;;;0.27;100.00;100703.06;4896827;29;19923;-78
2024/01/14 06:37:47;;;;;;;;;;;;;;;0.24;100.00;100707.81;4896744;29;20030;-78
2024/01/14 06:40:12;;;;;;;;;;;;;;;0.24;100.00;100703.38;4896184;29;19923;-78
2024/01/14 06:42:37;;;;;;;;;;;;;;;0.28;100.00;100699.44;4895865;29;19927;-78
2024/01/14 06:45:02;;;;;;;;;;;;;;;0.37;100.00;100687.22;4896284;29;19978;-77
2024/01/14 06:47:28;;;;;;;;;;;;;;;0.28;100.00;100688.03;4897150;29;20021;-78
2024/01/14 06:49:54;;;;;;;;;;;;;;;0.19;100.00;100686.19;4896496;29;20398;-78
2024/01/14 06:52:22;;;;;;;;;;;;;;;0.23;100.00;100679.66;4896666;29;19927;-78
2024/01/14 06:54:47;;;;;;;;;;;;;;;0.29;100.00;100684.41;4896943;29;19927;-76
2024/01/14 06:57:12;;;;;;;;;;;;;;;0.29;100.00;100681.78;4896371;29;20398;-78
2024/01/14 06:59:42;;;;;;;;;;;;;;;0.15;100.00;100682.97;4879090;29;19933;-78
2024/01/14 07:02:07;;;;;;;;;;;;;;;0.34;100.00;100687.50;4897252;29;20022;-78
2024/01/14 07:04:32;;;;;;;;;;;;;;;0.26;100.00;100689.97;4898922;29;20018;-77
2024/01/14 07:06:57;;;;;;;;;;;;;;;0.30;100.00;100684.28;4901281;29;19923;-78
2024/01/14 07:09:25;;;;;;;;;;;;;;;0.30;100.00;100673.69;4897401;29;19991;-78
2024/01/14 07:11:50;;;;;;;;;;;;;;;0.21;100.00;100671.00;4896432;29;19931;-78
2024/01/14 07:14:15;;;;;;;;;;;;;;;0.13;100.00;100664.59;4895101;29;19923;-78
2024/01/14 07:16:40;;;;;;;;;;;;;;;0.02;100.00;100669.94;4897640;29;19931;-79
2024/01/14 07:19:06;;;;;;;;;;;;;;;0.10;100.00;100670.13;4896014;29;19934;-78
2024/01/14 07:21:31;;;;;;;;;;;;;;;0.18;100.00;100681.88;4895422;29;19974;-78
2024/01/14 07:23:56;;;;;;;;;;;;;;;0.11;100.00;100687.69;4896224;29;19939;-78
2024/01/14 07:26:22;;;;;;;;;;;;;;;0.14;100.00;100686.59;4896492;29;20265;-78
2024/01/14 07:28:48;;;;;;;;;;;;;;;0.10;100.00;100685.16;4895846;29;19946;-79
2024/01/14 07:33:38;;;;;;;;;;;;;;;0.06;100.00;100681.94;4903068;23;19934;-78
2024/01/14 07:36:04;;;;;;;;;;;;;;;-0.08;100.00;100687.59;4896598;29;19927;-78
2024/01/14 07:38:29;;;;;;;;;;;;;;;0.11;100.00;100698.28;4897811;29;19931;-77
2024/01/14 07:40:54;;;;;;;;;;;;;;;0.10;100.00;100693.09;4899815;29;19924;-77
2024/01/14 07:43:20;;;;;;;;;;;;;;;0.02;100.00;100693.75;4896376;29;19927;-74
2024/01/14 07:45:45;;;;;;;;;;;;;;;0.03;100.00;100686.69;4898678;29;19924;-74
2024/01/14 07:48:16;;;;;;;;;;;;;;;0.13;100.00;100674.31;4899143;29;19928;-73
2024/01/14 07:50:42;;;;;;;;;;;;;;;-0.01;100.00;100662.31;4905399;29;19939;-73
2024/01/14 07:53:09;;;;;;;;;;;;;;;-0.05;100.00;100668.81;4911222;29;20011;-76
2024/01/14 07:55:34;;;;;;;;;;;;;;;0.05;100.00;100666.22;4917671;29;19947;-76
2024/01/14 07:57:59;;;;;;;;;;;;;;;-0.05;100.00;100667.00;4912353;29;19923;-76
2024/01/14 08:00:25;;;;;;;;;;;;;;;-0.11;100.00;100667.53;4905171;29;19934;-77
2024/01/14 08:02:50;;;;;;;;;;;;;;;-0.13;100.00;100680.06;4904940;29;19919;-76
2024/01/14 08:05:15;;;;;;;;;;;;;;;-0.03;100.00;100683.59;4901389;29;20392;-78
2024/01/14 08:07:41;;;;;;;;;;;;;;;-0.08;100.00;100687.59;4900222;29;19943;-78
2024/01/14 08:10:06;;;;;;;;;;;;;;;-0.28;100.00;100670.78;4901591;29;19920;-78
2024/01/14 08:12:31;;;;;;;;;;;;;;;-0.22;100.00;100676.41;4899639;29;19923;-78
2024/01/14 08:15:00;;;;;;;;;;;;;;;-0.22;100.00;100672.91;4894970;29;20443;-78
2024/01/14 08:17:27;;;;;;;;;;;;;;;-0.25;100.00;100675.81;4896373;29;19983;-78
2024/01/14 08:19:52;;;;;;;;;;;;;;;-0.22;100.00;100671.09;4892697;29;20158;-77
2024/01/14 08:22:18;;;;;;;;;;;;;;;-0.30;100.00;100676.19;4905622;29;19927;-78
2024/01/14 08:24:46;;;;;;;;;;;;;;;-0.32;100.00;100665.75;4918336;29;19930;-78
2024/01/14 08:29:46;;;;;;;;;;;;;;;-0.26;100.00;100676.75;5001653;23;19927;-78
2024/01/14 08:32:30;;;;;;;;;;;;;;;-0.34;100.00;100682.72;4904631;29;19923;-78
2024/01/14 08:35:04;;;;;;;;;;;;;;;-0.32;100.00;100664.91;4906185;29;20105;-77
2024/01/14 08:37:35;;;;;;;;;;;;;;;-0.29;100.00;100663.81;4898221;29;19923;-77
2024/01/14 08:43:03;;;;;;;;;;;;;;;-0.22;100.00;100665.81;4889899;29;19946;-79
2024/01/14 08:46:03;;;;;;;;;;;;;;;-0.28;100.00;100661.03;4896481;29;20360;-77
2024/01/14 08:48:44;;;;;;;;;;;;;;;-0.18;100.00;100661.09;4897711;29;19933;-77
2024/01/14 08:51:31;;;;;;;;;;;;;;;-0.17;100.00;100657.47;4901380;29;19927;-77
2024/01/14 08:54:00;;;;;;;;;;;;;;;-0.24;100.00;100662.47;4918976;29;19975;-78
2024/01/14 08:57:00;;;;;;;;;;;;;;;-0.23;100.00;100653.56;4856963;29;19930;-78
2024/01/14 08:59:28;;;;;;;;;;;;;;;-0.04;100.00;100652.78;4900945;29;19931;-77
2024/01/14 09:01:53;;;;;;;;;;;;;;;-0.16;100.00;100651.22;4899902;29;19924;-77
2024/01/14 09:04:37;;;;;;;;;;;;;;;-0.19;100.00;100649.69;4897139;29;19934;-77
2024/01/14 09:10:05;;;;;;;;;;;;;;;-0.17;100.00;100631.03;4896278;29;19969;-78
2024/01/14 09:15:25;;;;;;;;;;;;;;;-0.30;100.00;100639.16;4905768;23;19998;-78
2024/01/14 09:17:51;;;;;;;;;;;;;;;-0.23;100.00;100639.47;4902196;29;19951;-77
2024/01/14 09:20:17;;;;;;;;;;;;;;;-0.31;100.00;100633.06;4916674;29;19931;-77
2024/01/14 09:23:04;;;;;;;;;;;;;;;-0.14;100.00;100630.75;4917562;29;19927;-77
2024/01/14 09:25:29;;;;;;;;;;;;;;;-0.16;100.00;100633.53;4917325;29;19927;-77
2024/01/14 09:28:09;;;;;;;;;;;;;;;-0.21;100.00;100626.97;4902140;29;19980;-77
2024/01/14 09:30:56;;;;;;;;;;;;;;;-0.16;100.00;100619.47;4899218;29;20018;-77
2024/01/14 09:33:59;;;;;;;;;;;;;;;-0.19;100.00;100623.22;4897465;29;20371;-77
2024/01/14 09:36:26;;;;;;;;;;;;;;;-0.10;100.00;100626.88;4896954;29;19923;-77
2024/01/14 09:39:00;;;;;;;;;;;;;;;-0.03;100.00;100629.84;4897610;29;19984;-77
2024/01/14 09:42:00;;;;;;;;;;;;;;;0.05;100.00;100621.22;4890589;29;19931;-77
2024/01/14 09:44:31;;;;;;;;;;;;;;;0.19;100.00;100626.13;4893124;29;20466;-77
2024/01/14 09:47:26;;;;;;;;;;;;;;;0.02;100.00;100614.38;4891098;29;19934;-77
2024/01/14 09:50:03;;;;;;;;;;;;;;;-0.16;100.00;100625.59;4819315;29;19925;-77
2024/01/14 09:52:29;;;;;;;;;;;;;;;-0.17;100.00;100615.16;4803304;29;20214;-77
2024/01/14 09:55:04;;;;;;;;;;;;;;;0.01;100.00;100618.00;4817375;29;20193;-76
2024/01/14 10:00:38;;;;;;;;;;;;;;;-0.10;100.00;100626.03;4832078;29;20361;-77
2024/01/14 10:03:06;;;;;;;;;;;;;;;-0.06;100.00;100615.03;4850518;23;20329;-76
2024/01/14 10:05:34;;;;;;;;;;;;;;;-0.01;100.00;100612.84;4885605;23;20499;-78
2024/01/14 10:07:59;;;;;;;;;;;;;;;0.07;100.00;100606.88;4896891;29;19928;-77
2024/01/14 10:10:26;;;;;;;;;;;;;;;0.09;100.00;100607.59;4894994;29;19942;-77
2024/01/14 10:12:51;;;;;;;;;;;;;;;0.08;100.00;100603.25;4899096;29;19923;-77
2024/01/14 10:17:52;;;;;;;;;;;;;;;0.22;100.00;100599.41;4954630;23;19927;-78
2024/01/14 10:20:26;;;;;;;;;;;;;;;0.09;100.00;100593.53;4895102;29;19930;-78
2024/01/14 10:23:01;;;;;;;;;;;;;;;0.23;100.00;100594.94;4896675;29;20007;-77
2024/01/14 10:25:38;;;;;;;;;;;;;;;0.20;100.00;100589.91;4894738;29;19924;-79
2024/01/14 10:28:12;;;;;;;;;;;;;;;0.24;100.00;100586.03;4892896;29;19930;-76
2024/01/14 10:30:37;;;;;;;;;;;;;;;0.31;100.00;100595.09;4897621;29;19924;-78
2024/01/14 10:33:09;;;;;;;;;;;;;;;0.24;100.00;100597.47;4894832;29;19939;-78
2024/01/14 10:35:46;;;;;;;;;;;;;;;0.29;100.00;100581.97;4895143;29;19928;-78
2024/01/14 10:38:23;;;;;;;;;;;;;;;0.20;100.00;100577.53;4901214;23;20703;-78
2024/01/14 10:41:00;;;;;;;;;;;;;;;0.17;100.00;100564.56;4895796;29;19936;-78
2024/01/14 10:43:26;;;;;;;;;;;;;;;0.24;100.00;100568.34;4862582;29;19924;-78
2024/01/14 10:45:58;;;;;;;;;;;;;;;0.28;100.00;100566.25;4895635;29;19939;-78
2024/01/14 10:48:42;;;;;;;;;;;;;;;0.28;100.00;100555.66;4881243;29;19923;-77
2024/01/14 11:00:12;;;;;;;;;;;;;;;0.27;100.00;100533.63;4897372;29;19980;-77
2024/01/14 11:02:41;;;;;;;;;;;;;;;0.35;100.00;100535.59;4869302;29;19931;-77
2024/01/14 11:05:07;;;;;;;;;;;;;;;0.39;100.00;100525.56;4884420;23;19931;-78
2024/01/14 11:07:32;;;;;;;;;;;;;;;0.39;100.00;100529.03;4905915;29;19930;-78
2024/01/14 11:09:58;;;;;;;;;;;;;;;0.36;100.00;100531.97;4897355;29;19924;-78
2024/01/14 11:12:41;;;;;;;;;;;;;;;0.33;100.00;100526.13;4896439;29;20285;-78
2024/01/14 11:15:14;;;;;;;;;;;;;;;0.40;100.00;100527.25;4932217;23;21405;-78
2024/01/14 11:18:17;;;;;;;;;;;;;;;0.33;100.00;100529.63;4900080;29;19923;-77
2024/01/14 11:21:29;;;;;;;;;;;;;;;0.37;100.00;100523.03;4889239;29;19928;-77
2024/01/14 11:23:55;;;;;;;;;;;;;;;0.39;100.00;100510.50;4824013;29;19925;-78
2024/01/14 11:26:26;;;;;;;;;;;;;;;0.44;100.00;100516.22;4808319;29;19932;-77
2024/01/14 11:28:54;;;;;;;;;;;;;;;0.40;100.00;100506.88;4836897;29;19934;-78
2024/01/14 11:31:19;;;;;;;;;;;;;;;0.46;100.00;100497.53;4894396;29;19923;-77
2024/01/14 11:33:49;;;;;;;;;;;;;;;0.51;100.00;100491.84;4904228;29;20021;-76
2024/01/14 11:36:35;;;;;;;;;;;;;;;0.51;100.00;100487.38;4902670;29;19923;-78
2024/01/14 11:39:05;;;;;;;;;;;;;;;0.27;100.00;100487.78;4905623;29;19980;-78
2024/01/14 11:41:31;;;;;;;;;;;;;;;0.34;100.00;100480.97;4903721;29;19927;-79
2024/01/14 11:44:08;;;;;;;;;;;;;;;0.21;100.00;100472.44;4909901;29;19924;-77
2024/01/14 11:46:40;;;;;;;;;;;;;;;0.43;100.00;100474.84;4902968;29;19921;-77
2024/01/14 11:49:10;;;;;;;;;;;;;;;0.27;100.00;100466.63;4917037;29;20092;-77
2024/01/14 11:51:37;;;;;;;;;;;;;;;0.38;100.00;100458.53;4901530;29;20444;-76
2024/01/14 11:54:09;;;;;;;;;;;;;;;0.42;100.00;100446.69;4882166;29;20304;-77
2024/01/14 11:56:34;;;;;;;;;;;;;;;0.24;100.00;100451.00;4889661;29;19935;-79
2024/01/14 11:59:00;;;;;;;;;;;;;;;0.36;100.00;100438.47;4893905;29;19924;-77
2024/01/14 12:01:28;;;;;;;;;;;;;;;0.24;100.00;100440.41;4898997;29;20096;-77
2024/01/14 12:04:03;;;;;;;;;;;;;;;0.37;100.00;100432.19;4878687;29;20010;-79
2024/01/14 12:06:36;;;;;;;;;;;;;;;0.32;100.00;100422.03;4895876;29;20435;-78
2024/01/14 12:09:02;;;;;;;;;;;;;;;0.33;100.00;100415.75;4879473;29;20340;-78
2024/01/14 12:11:31;;;;;;;;;;;;;;;0.12;100.00;100411.44;4896391;29;20396;-77
2024/01/14 12:13:57;;;;;;;;;;;;;;;0.10;100.00;100407.25;4893351;29;20269;-78
2024/01/14 12:16:22;;;;;;;;;;;;;;;0.24;100.00;100400.69;4912387;28;19912;-78
2024/01/14 12:18:49;;;;;;;;;;;;;;;0.14;100.00;100396.25;4913045;29;19935;-78
2024/01/14 12:21:15;;;;;;;;;;;;;;;0.16;100.00;100397.94;4893245;29;20211;-78
2024/01/14 12:23:40;;;;;;;;;;;;;;;0.14;100.00;100395.41;4897239;29;20355;-78
2024/01/14 12:26:09;;;;;;;;;;;;;;;0.07;100.00;100384.56;4890982;29;20376;-79
2024/01/14 12:28:37;;;;;;;;;;;;;;;0.12;100.00;100382.34;4891468;29;19962;-78
2024/01/14 12:31:04;;;;;;;;;;;;;;;0.14;100.00;100375.09;4895898;29;20368;-79
2024/01/14 12:33:29;;;;;;;;;;;;;;;0.14;100.00;100372.44;4888629;29;20002;-78
2024/01/14 12:35:54;;;;;;;;;;;;;;;0.22;100.00;100370.88;4880942;29;20329;-77
2024/01/14 12:38:19;;;;;;;;;;;;;;;0.29;100.00;100361.41;4872151;29;20336;-79
2024/01/14 12:40:45;;;;;;;;;;;;;;;0.27;100.00;100358.06;4891395;29;20031;-78
2024/01/14 12:43:12;;;;;;;;;;;;;;;0.15;100.00;100362.69;4896089;29;19924;-78
2024/01/14 12:45:38;;;;;;;;;;;;;;;0.09;100.00;100350.84;4909488;29;19919;-79
2024/01/14 12:48:04;;;;;;;;;;;;;;;0.14;100.00;100343.31;4900258;29;19927;-79
2024/01/14 12:50:29;;;;;;;;;;;;;;;0.29;100.00;100340.22;4904517;23;19927;-78
2024/01/14 12:53:00;;;;;;;;;;;;;;;0.09;100.00;100334.97;4949727;23;19946;-79
2024/01/14 12:55:38;;;;;;;;;;;;;;;0.18;100.00;100333.28;4897554;29;19971;-78
2024/01/14 12:58:20;;;;;;;;;;;;;;;0.06;100.00;100324.66;4978674;23;19927;-79
2024/01/14 13:00:45;;;;;;;;;;;;;;;0.18;100.00;100332.47;4896309;29;19928;-79
2024/01/14 13:03:28;;;;;;;;;;;;;;;0.27;100.00;100316.53;4895651;29;19923;-80
2024/01/14 13:06:00;;;;;;;;;;;;;;;0.16;100.00;100313.25;4899271;29;20268;-77
2024/01/14 13:08:25;;;;;;;;;;;;;;;0.22;100.00;100318.78;4891748;29;20413;-78